sensor_id;sensor_type;location;lat;lon;timestamp;pressure;altitude;pressure_sealevel;temperature;humidity
27429;BME280;14881;48.092;11.574;2023-02-11T00:00:39;97291.56;;;-2.85;100.00
27429;BME280;14881;48.092;11.574;2023-02-11T00:03:07;97297.22;;;-2.79;100.00
27429;BME280;14881;48.092;11.574;2023-02-11T00:05:35;97299.06;;;-2.80;100.00
27429;BME280;14881;48.092;11.574;2023-02-11T00:08:03;97291.25;;;-2.82;100.00
27429;BME280;14881;48.092;11.574;2023-02-11T00:10:32;97294.06;;;-2.83;100.00
27429;BME280;14881;48.092;11.574;2023-02-11T00:13:00;97287.28;;;-2.77;100.00
27429;BME280;14881;48.092;11.574;2023-02-11T00:15:28;97287.91;;;-2.75;100.00
27429;BME280;14881;48.092;11.574;2023-02-11T00:17:56;97297.06;;;-2.78;100.00
27429;BME280;14881;48.092;11.574;2023-02-11T00:20:24;97295.06;;;-2.84;100.00
27429;BME280;14881;48.092;11.574;2023-02-11T00:22:51;97302.34;;;-2.86;100.00
27429;BME280;14881;48.092;11.574;2023-02-11T00:25:19;97299.50;;;-2.93;100.00
27429;BME280;14881;48.092;11.574;2023-02-11T00:27:48;97302.81;;;-2.91;100.00
27429;BME280;14881;48.092;11.574;2023-02-11T00:30:16;97293.84;;;-2.90;100.00
27429;BME280;14881;48.092;11.574;2023-02-11T00:32:44;97299.84;;;-2.88;100.00
27429;BME280;14881;48.092;11.574;2023-02-11T00:35:11;97289.84;;;-2.94;100.00
27429;BME280;14881;48.092;11.574;2023-02-11T00:37:39;97290.88;;;-2.95;100.00
27429;BME280;14881;48.092;11.574;2023-02-11T00:40:08;97285.56;;;-2.95;100.00
27429;BME280;14881;48.092;11.574;2023-02-11T00:42:36;97281.03;;;-3.02;100.00
27429;BME280;14881;48.092;11.574;2023-02-11T00:45:06;97290.50;;;-3.00;100.00
27429;BME280;14881;48.092;11.574;2023-02-11T00:47:35;97286.81;;;-3.07;100.00
27429;BME280;14881;48.092;11.574;2023-02-11T00:50:04;97280.34;;;-3.04;100.00
27429;BME280;14881;48.092;11.574;2023-02-11T00:52:33;97276.34;;;-3.08;100.00
27429;BME280;14881;48.092;11.574;2023-02-11T00:55:01;97269.72;;;-3.12;100.00
27429;BME280;14881;48.092;11.574;2023-02-11T00:57:29;97270.84;;;-3.15;100.00
27429;BME280;14881;48.092;11.574;2023-02-11T00:59:57;97276.00;;;-3.13;100.00
27429;BME280;14881;48.092;11.574;2023-02-11T01:02:29;97267.38;;;-3.16;100.00
27429;BME280;14881;48.092;11.574;2023-02-11T01:04:57;97267.88;;;-3.12;100.00
27429;BME280;14881;48.092;11.574;2023-02-11T01:07:26;97262.88;;;-3.15;100.00
27429;BME280;14881;48.092;11.574;2023-02-11T01:09:57;97267.22;;;-3.14;100.00
27429;BME280;14881;48.092;11.574;2023-02-11T01:12:25;97265.03;;;-3.10;100.00
27429;BME280;14881;48.092;11.574;2023-02-11T01:14:52;97262.91;;;-3.07;100.00
27429;BME280;14881;48.092;11.574;2023-02-11T01:17:21;97268.22;;;-3.07;100.00
27429;BME280;14881;48.092;11.574;2023-02-11T01:19:50;97264.09;;;-3.01;100.00
27429;BME280;14881;48.092;11.574;2023-02-11T01:22:18;97263.94;;;-3.00;100.00
27429;BME280;14881;48.092;11.574;2023-02-11T01:24:46;97262.59;;;-3.04;100.00
27429;BME280;14881;48.092;11.574;2023-02-11T01:27:13;97267.22;;;-3.06;100.00
27429;BME280;14881;48.092;11.574;2023-02-11T01:29:41;97261.44;;;-3.01;100.00
27429;BME280;14881;48.092;11.574;2023-02-11T01:32:09;97258.78;;;-3.01;100.00
27429;BME280;14881;48.092;11.574;2023-02-11T01:34:37;97255.28;;;-3.02;100.00
27429;BME280;14881;48.092;11.574;2023-02-11T01:37:06;97257.59;;;-3.07;100.00
27429;BME280;14881;48.092;11.574;2023-02-11T01:39:34;97259.41;;;-3.16;100.00
27429;BME280;14881;48.092;11.574;2023-02-11T01:42:02;97254.75;;;-3.13;100.00
27429;BME280;14881;48.092;11.574;2023-02-11T01:44:32;97260.72;;;-3.11;100.00
27429;BME280;14881;48.092;11.574;2023-02-11T01:47:00;97257.59;;;-3.07;100.00
27429;BME280;14881;48.092;11.574;2023-02-11T01:49:32;97256.06;;;-3.09;100.00
27429;BME280;14881;48.092;11.574;2023-02-11T01:52:02;97261.91;;;-3.14;100.00
27429;BME280;14881;48.092;11.574;2023-02-11T01:54:37;97252.41;;;-3.17;100.00
27429;BME280;14881;48.092;11.574;2023-02-11T01:57:28;97261.22;;;-3.16;100.00
27429;BME280;14881;48.092;11.574;2023-02-11T02:00:03;97259.72;;;-3.19;100.00
27429;BME280;14881;48.092;11.574;2023-02-11T02:02:35;97257.88;;;-3.18;100.00
27429;BME280;14881;48.092;11.574;2023-02-11T02:05:09;97253.56;;;-3.19;100.00
27429;BME280;14881;48.092;11.574;2023-02-11T02:07:51;97252.88;;;-3.29;100.00
27429;BME280;14881;48.092;11.574;2023-02-11T02:10:25;97251.00;;;-3.37;100.00
27429;BME280;14881;48.092;11.574;2023-02-11T02:12:53;97252.88;;;-3.29;100.00
27429;BME280;14881;48.092;11.574;2023-02-11T02:15:27;97256.47;;;-3.38;100.00
27429;BME280;14881;48.092;11.574;2023-02-11T02:18:08;97252.28;;;-3.41;100.00
27429;BME280;14881;48.092;11.574;2023-02-11T02:24:07;97235.50;;;-3.49;100.00
27429;BME280;14881;48.092;11.574;2023-02-11T02:30:10;97238.41;;;-3.69;100.00
27429;BME280;14881;48.092;11.574;2023-02-11T02:32:53;97226.06;;;-3.78;100.00
27429;BME280;14881;48.092;11.574;2023-02-11T02:35:32;97228.22;;;-3.81;100.00
27429;BME280;14881;48.092;11.574;2023-02-11T02:38:07;97219.75;;;-3.77;100.00
27429;BME280;14881;48.092;11.574;2023-02-11T02:40:44;97218.91;;;-3.77;100.00
27429;BME280;14881;48.092;11.574;2023-02-11T02:43:14;97216.56;;;-3.80;100.00
27429;BME280;14881;48.092;11.574;2023-02-11T02:45:43;97210.78;;;-3.84;100.00
27429;BME280;14881;48.092;11.574;2023-02-11T02:48:24;97208.94;;;-3.83;100.00
27429;BME280;14881;48.092;11.574;2023-02-11T02:51:00;97209.78;;;-3.83;100.00
27429;BME280;14881;48.092;11.574;2023-02-11T02:53:41;97215.94;;;-3.74;100.00
27429;BME280;14881;48.092;11.574;2023-02-11T02:56:15;97212.16;;;-3.72;100.00
27429;BME280;14881;48.092;11.574;2023-02-11T02:59:03;97205.84;;;-3.71;100.00
27429;BME280;14881;48.092;11.574;2023-02-11T03:01:42;97203.34;;;-3.72;100.00
27429;BME280;14881;48.092;11.574;2023-02-11T03:04:22;97193.72;;;-3.73;100.00
27429;BME280;14881;48.092;11.574;2023-02-11T03:07:00;97187.59;;;-3.74;100.00
27429;BME280;14881;48.092;11.574;2023-02-11T03:09:32;97188.72;;;-3.76;100.00
27429;BME280;14881;48.092;11.574;2023-02-11T03:12:03;97187.78;;;-3.67;100.00
27429;BME280;14881;48.092;11.574;2023-02-11T03:14:35;97184.31;;;-3.60;100.00
27429;BME280;14881;48.092;11.574;2023-02-11T03:17:06;97183.22;;;-3.49;100.00
27429;BME280;14881;48.092;11.574;2023-02-11T03:19:38;97178.06;;;-3.51;100.00
27429;BME280;14881;48.092;11.574;2023-02-11T03:22:12;97178.38;;;-3.54;100.00
27429;BME280;14881;48.092;11.574;2023-02-11T03:24:44;97172.06;;;-3.53;100.00
27429;BME280;14881;48.092;11.574;2023-02-11T03:27:18;97165.09;;;-3.54;100.00
27429;BME280;14881;48.092;11.574;2023-02-11T03:29:50;97164.75;;;-3.59;100.00
27429;BME280;14881;48.092;11.574;2023-02-11T03:32:24;97162.75;;;-3.65;100.00
27429;BME280;14881;48.092;11.574;2023-02-11T03:34:56;97157.91;;;-3.69;100.00
27429;BME280;14881;48.092;11.574;2023-02-11T03:37:29;97159.91;;;-3.63;100.00
27429;BME280;14881;48.092;11.574;2023-02-11T03:40:02;97164.44;;;-3.56;100.00
27429;BME280;14881;48.092;11.574;2023-02-11T03:42:34;97159.16;;;-3.47;100.00
27429;BME280;14881;48.092;11.574;2023-02-11T03:45:06;97159.16;;;-3.47;100.00
27429;BME280;14881;48.092;11.574;2023-02-11T03:47:37;97167.13;;;-3.47;100.00
27429;BME280;14881;48.092;11.574;2023-02-11T03:50:09;97173.28;;;-3.47;100.00
27429;BME280;14881;48.092;11.574;2023-02-11T03:52:39;97165.31;;;-3.47;100.00
27429;BME280;14881;48.092;11.574;2023-02-11T03:55:22;97154.34;;;-3.44;100.00
27429;BME280;14881;48.092;11.574;2023-02-11T03:57:51;97158.97;;;-3.46;100.00
27429;BME280;14881;48.092;11.574;2023-02-11T04:00:19;97167.13;;;-3.47;100.00
27429;BME280;14881;48.092;11.574;2023-02-11T04:02:46;97170.78;;;-3.48;100.00
27429;BME280;14881;48.092;11.574;2023-02-11T04:05:17;97170.88;;;-3.58;100.00
27429;BME280;14881;48.092;11.574;2023-02-11T04:07:44;97184.63;;;-3.63;100.00
27429;BME280;14881;48.092;11.574;2023-02-11T04:10:12;97180.34;;;-3.64;100.00
27429;BME280;14881;48.092;11.574;2023-02-11T04:12:40;97167.22;;;-3.65;100.00
27429;BME280;14881;48.092;11.574;2023-02-11T04:15:08;97178.69;;;-3.65;100.00
27429;BME280;14881;48.092;11.574;2023-02-11T04:17:36;97171.88;;;-3.59;100.00
27429;BME280;14881;48.092;11.574;2023-02-11T04:20:04;97164.06;;;-3.61;100.00
27429;BME280;14881;48.092;11.574;2023-02-11T04:22:34;97172.88;;;-3.60;100.00
27429;BME280;14881;48.092;11.574;2023-02-11T04:25:02;97176.50;;;-3.61;100.00
27429;BME280;14881;48.092;11.574;2023-02-11T04:27:30;97179.00;;;-3.60;100.00
27429;BME280;14881;48.092;11.574;2023-02-11T04:29:57;97196.59;;;-3.59;100.00
27429;BME280;14881;48.092;11.574;2023-02-11T04:32:26;97194.41;;;-3.63;100.00
27429;BME280;14881;48.092;11.574;2023-02-11T04:34:54;97184.00;;;-3.65;100.00
27429;BME280;14881;48.092;11.574;2023-02-11T04:37:21;97179.31;;;-3.71;100.00
27429;BME280;14881;48.092;11.574;2023-02-11T04:39:55;97184.47;;;-3.69;100.00
27429;BME280;14881;48.092;11.574;2023-02-11T04:42:23;97193.44;;;-3.62;100.00
27429;BME280;14881;48.092;11.574;2023-02-11T04:44:51;97199.94;;;-3.57;100.00
27429;BME280;14881;48.092;11.574;2023-02-11T04:47:19;97189.22;;;-3.47;100.00
27429;BME280;14881;48.092;11.574;2023-02-11T04:49:47;97199.47;;;-3.52;100.00
27429;BME280;14881;48.092;11.574;2023-02-11T04:52:17;97196.78;;;-3.60;100.00
27429;BME280;14881;48.092;11.574;2023-02-11T04:54:47;97204.06;;;-3.62;100.00
27429;BME280;14881;48.092;11.574;2023-02-11T04:57:16;97211.31;;;-3.72;100.00
27429;BME280;14881;48.092;11.574;2023-02-11T04:59:47;97217.84;;;-3.93;100.00
27429;BME280;14881;48.092;11.574;2023-02-11T05:02:15;97215.63;;;-4.05;100.00
27429;BME280;14881;48.092;11.574;2023-02-11T05:04:43;97217.38;;;-4.14;100.00
27429;BME280;14881;48.092;11.574;2023-02-11T05:07:10;97232.94;;;-4.19;100.00
27429;BME280;14881;48.092;11.574;2023-02-11T05:09:38;97224.16;;;-4.19;100.00
27429;BME280;14881;48.092;11.574;2023-02-11T05:12:06;97223.84;;;-4.16;100.00
27429;BME280;14881;48.092;11.574;2023-02-11T05:14:35;97218.84;;;-4.19;100.00
27429;BME280;14881;48.092;11.574;2023-02-11T05:17:06;97225.44;;;-4.24;100.00
27429;BME280;14881;48.092;11.574;2023-02-11T05:19:34;97228.38;;;-4.27;100.00
27429;BME280;14881;48.092;11.574;2023-02-11T05:22:02;97218.16;;;-4.22;100.00
27429;BME280;14881;48.092;11.574;2023-02-11T05:24:34;97210.63;;;-4.08;100.00
27429;BME280;14881;48.092;11.574;2023-02-11T05:27:02;97211.84;;;-3.95;100.00
27429;BME280;14881;48.092;11.574;2023-02-11T05:29:30;97207.84;;;-3.73;100.00
27429;BME280;14881;48.092;11.574;2023-02-11T05:32:01;97204.88;;;-3.62;100.00
27429;BME280;14881;48.092;11.574;2023-02-11T05:34:29;97198.47;;;-3.51;100.00
27429;BME280;14881;48.092;11.574;2023-02-11T05:36:57;97202.81;;;-3.42;100.00
27429;BME280;14881;48.092;11.574;2023-02-11T05:39:25;97199.22;;;-3.33;100.00
27429;BME280;14881;48.092;11.574;2023-02-11T05:41:52;97199.38;;;-3.34;100.00
27429;BME280;14881;48.092;11.574;2023-02-11T05:44:21;97192.56;;;-3.29;100.00
27429;BME280;14881;48.092;11.574;2023-02-11T05:46:49;97188.59;;;-3.25;100.00
27429;BME280;14881;48.092;11.574;2023-02-11T05:49:20;97183.97;;;-3.23;100.00
27429;BME280;14881;48.092;11.574;2023-02-11T05:51:48;97182.97;;;-3.30;100.00
27429;BME280;14881;48.092;11.574;2023-02-11T05:54:19;97181.47;;;-3.24;100.00
27429;BME280;14881;48.092;11.574;2023-02-11T05:56:49;97183.31;;;-3.17;100.00
27429;BME280;14881;48.092;11.574;2023-02-11T05:59:17;97191.44;;;-3.10;100.00
27429;BME280;14881;48.092;11.574;2023-02-11T06:01:45;97184.00;;;-3.06;100.00
27429;BME280;14881;48.092;11.574;2023-02-11T06:04:13;97176.69;;;-3.04;100.00
27429;BME280;14881;48.092;11.574;2023-02-11T06:06:42;97181.88;;;-2.95;100.00
27429;BME280;14881;48.092;11.574;2023-02-11T06:09:12;97185.03;;;-2.99;100.00
27429;BME280;14881;48.092;11.574;2023-02-11T06:11:40;97181.69;;;-2.93;100.00
27429;BME280;14881;48.092;11.574;2023-02-11T06:14:08;97173.91;;;-2.87;100.00
27429;BME280;14881;48.092;11.574;2023-02-11T06:16:36;97170.59;;;-2.81;100.00
27429;BME280;14881;48.092;11.574;2023-02-11T06:19:04;97171.06;;;-2.77;100.00
27429;BME280;14881;48.092;11.574;2023-02-11T06:21:32;97175.56;;;-2.69;100.00
27429;BME280;14881;48.092;11.574;2023-02-11T06:24:11;97180.09;;;-2.62;100.00
27429;BME280;14881;48.092;11.574;2023-02-11T06:26:41;97174.25;;;-2.57;100.00
27429;BME280;14881;48.092;11.574;2023-02-11T06:29:12;97178.75;;;-2.50;100.00
27429;BME280;14881;48.092;11.574;2023-02-11T06:31:40;97173.59;;;-2.51;100.00
27429;BME280;14881;48.092;11.574;2023-02-11T06:34:08;97174.25;;;-2.49;100.00
27429;BME280;14881;48.092;11.574;2023-02-11T06:36:38;97175.59;;;-2.45;100.00
27429;BME280;14881;48.092;11.574;2023-02-11T06:39:06;97175.59;;;-2.45;100.00
27429;BME280;14881;48.092;11.574;2023-02-11T06:41:35;97174.22;;;-2.41;100.00
27429;BME280;14881;48.092;11.574;2023-02-11T06:44:06;97180.38;;;-2.40;100.00
27429;BME280;14881;48.092;11.574;2023-02-11T06:46:33;97183.06;;;-2.32;100.00
27429;BME280;14881;48.092;11.574;2023-02-11T06:49:01;97179.38;;;-2.23;100.00
27429;BME280;14881;48.092;11.574;2023-02-11T06:51:29;97168.56;;;-2.14;100.00
27429;BME280;14881;48.092;11.574;2023-02-11T06:53:57;97164.91;;;-2.13;100.00
27429;BME280;14881;48.092;11.574;2023-02-11T06:56:25;97162.38;;;-2.06;100.00
27429;BME280;14881;48.092;11.574;2023-02-11T06:58:55;97166.69;;;-1.97;100.00
27429;BME280;14881;48.092;11.574;2023-02-11T07:01:24;97163.66;;;-1.86;100.00
27429;BME280;14881;48.092;11.574;2023-02-11T07:03:52;97171.31;;;-1.83;100.00
27429;BME280;14881;48.092;11.574;2023-02-11T07:06:22;97179.75;;;-1.71;100.00
27429;BME280;14881;48.092;11.574;2023-02-11T07:08:53;97182.06;;;-1.60;100.00
27429;BME280;14881;48.092;11.574;2023-02-11T07:11:23;97184.84;;;-1.45;100.00
27429;BME280;14881;48.092;11.574;2023-02-11T07:13:52;97189.78;;;-1.34;100.00
27429;BME280;14881;48.092;11.574;2023-02-11T07:16:24;97192.25;;;-1.24;100.00
27429;BME280;14881;48.092;11.574;2023-02-11T07:18:53;97188.22;;;-1.20;100.00
27429;BME280;14881;48.092;11.574;2023-02-11T07:21:22;97191.84;;;-1.13;100.00
27429;BME280;14881;48.092;11.574;2023-02-11T07:23:50;97177.66;;;-1.06;100.00
27429;BME280;14881;48.092;11.574;2023-02-11T07:26:20;97189.50;;;-1.08;100.00
27429;BME280;14881;48.092;11.574;2023-02-11T07:28:49;97175.19;;;-1.07;100.00
27429;BME280;14881;48.092;11.574;2023-02-11T07:31:20;97163.50;;;-1.06;100.00
27429;BME280;14881;48.092;11.574;2023-02-11T07:33:50;97162.50;;;-1.05;100.00
27429;BME280;14881;48.092;11.574;2023-02-11T07:36:18;97156.25;;;-0.97;100.00
27429;BME280;14881;48.092;11.574;2023-02-11T07:38:46;97157.75;;;-0.95;100.00
27429;BME280;14881;48.092;11.574;2023-02-11T07:41:16;97161.84;;;-0.84;100.00
27429;BME280;14881;48.092;11.574;2023-02-11T07:43:44;97174.66;;;-0.80;100.00
27429;BME280;14881;48.092;11.574;2023-02-11T07:46:16;97187.31;;;-0.74;100.00
27429;BME280;14881;48.092;11.574;2023-02-11T07:48:50;97176.03;;;-0.61;100.00
27429;BME280;14881;48.092;11.574;2023-02-11T07:51:19;97169.91;;;-0.47;100.00
27429;BME280;14881;48.092;11.574;2023-02-11T07:53:47;97169.50;;;-0.36;100.00
27429;BME280;14881;48.092;11.574;2023-02-11T07:56:17;97182.75;;;-0.27;100.00
27429;BME280;14881;48.092;11.574;2023-02-11T07:58:45;97172.25;;;-0.29;100.00
27429;BME280;14881;48.092;11.574;2023-02-11T08:01:14;97177.06;;;-0.24;100.00
27429;BME280;14881;48.092;11.574;2023-02-11T08:03:43;97168.13;;;-0.17;100.00
27429;BME280;14881;48.092;11.574;2023-02-11T08:06:14;97168.56;;;-0.05;100.00
27429;BME280;14881;48.092;11.574;2023-02-11T08:08:42;97160.25;;;0.05;100.00
27429;BME280;14881;48.092;11.574;2023-02-11T08:11:13;97143.41;;;0.04;100.00
27429;BME280;14881;48.092;11.574;2023-02-11T08:13:41;97140.84;;;0.11;100.00
27429;BME280;14881;48.092;11.574;2023-02-11T08:16:17;97134.47;;;0.12;100.00
27429;BME280;14881;48.092;11.574;2023-02-11T08:18:49;97141.94;;;0.16;100.00
27429;BME280;14881;48.092;11.574;2023-02-11T08:21:19;97131.81;;;0.26;100.00
27429;BME280;14881;48.092;11.574;2023-02-11T08:23:47;97134.19;;;0.36;100.00
27429;BME280;14881;48.092;11.574;2023-02-11T08:26:18;97130.59;;;0.44;100.00
27429;BME280;14881;48.092;11.574;2023-02-11T08:28:48;97134.44;;;0.56;100.00
27429;BME280;14881;48.092;11.574;2023-02-11T08:31:18;97133.41;;;0.72;100.00
27429;BME280;14881;48.092;11.574;2023-02-11T08:33:46;97126.31;;;0.79;100.00
27429;BME280;14881;48.092;11.574;2023-02-11T08:36:16;97127.13;;;0.79;100.00
27429;BME280;14881;48.092;11.574;2023-02-11T08:38:46;97120.09;;;0.93;100.00
27429;BME280;14881;48.092;11.574;2023-02-11T08:41:14;97122.06;;;1.05;100.00
27429;BME280;14881;48.092;11.574;2023-02-11T08:43:43;97134.63;;;1.26;100.00
27429;BME280;14881;48.092;11.574;2023-02-11T08:46:12;97140.94;;;1.40;100.00
27429;BME280;14881;48.092;11.574;2023-02-11T08:48:41;97156.06;;;1.48;100.00
27429;BME280;14881;48.092;11.574;2023-02-11T08:51:11;97166.44;;;1.57;100.00
27429;BME280;14881;48.092;11.574;2023-02-11T08:53:39;97161.03;;;1.72;100.00
27429;BME280;14881;48.092;11.574;2023-02-11T08:56:09;97150.75;;;1.75;100.00
27429;BME280;14881;48.092;11.574;2023-02-11T08:58:39;97162.63;;;1.88;100.00
27429;BME280;14881;48.092;11.574;2023-02-11T09:01:10;97159.78;;;1.96;100.00
27429;BME280;14881;48.092;11.574;2023-02-11T09:03:38;97157.41;;;2.07;100.00
27429;BME280;14881;48.092;11.574;2023-02-11T09:06:08;97158.44;;;2.06;100.00
27429;BME280;14881;48.092;11.574;2023-02-11T09:08:36;97140.19;;;1.95;100.00
27429;BME280;14881;48.092;11.574;2023-02-11T09:11:05;97145.53;;;1.95;100.00
27429;BME280;14881;48.092;11.574;2023-02-11T09:13:34;97141.00;;;1.96;100.00
27429;BME280;14881;48.092;11.574;2023-02-11T09:16:04;97149.97;;;2.09;100.00
27429;BME280;14881;48.092;11.574;2023-02-11T09:18:32;97150.84;;;2.17;100.00
27429;BME280;14881;48.092;11.574;2023-02-11T09:21:04;97153.97;;;2.20;100.00
27429;BME280;14881;48.092;11.574;2023-02-11T09:23:32;97144.13;;;2.27;100.00
27429;BME280;14881;48.092;11.574;2023-02-11T09:26:04;97134.00;;;2.23;100.00
27429;BME280;14881;48.092;11.574;2023-02-11T09:28:36;97142.44;;;2.20;100.00
27429;BME280;14881;48.092;11.574;2023-02-11T09:31:04;97132.16;;;2.23;100.00
27429;BME280;14881;48.092;11.574;2023-02-11T09:33:33;97141.25;;;2.29;100.00
27429;BME280;14881;48.092;11.574;2023-02-11T09:36:01;97129.81;;;2.48;100.00
27429;BME280;14881;48.092;11.574;2023-02-11T09:38:32;97131.06;;;2.52;100.00
27429;BME280;14881;48.092;11.574;2023-02-11T09:41:01;97126.53;;;2.53;100.00
27429;BME280;14881;48.092;11.574;2023-02-11T09:43:37;97123.22;;;2.51;100.00
27429;BME280;14881;48.092;11.574;2023-02-11T09:46:13;97117.84;;;2.51;100.00
27429;BME280;14881;48.092;11.574;2023-02-11T09:48:44;97124.44;;;2.48;100.00
27429;BME280;14881;48.092;11.574;2023-02-11T09:51:18;97119.50;;;2.52;100.00
27429;BME280;14881;48.092;11.574;2023-02-11T09:53:48;97119.00;;;2.35;100.00
27429;BME280;14881;48.092;11.574;2023-02-11T09:56:19;97117.34;;;2.34;100.00
27429;BME280;14881;48.092;11.574;2023-02-11T09:58:48;97134.13;;;2.49;100.00
27429;BME280;14881;48.092;11.574;2023-02-11T10:01:24;97130.34;;;2.71;100.00
27429;BME280;14881;48.092;11.574;2023-02-11T10:04:02;97125.72;;;3.06;100.00
27429;BME280;14881;48.092;11.574;2023-02-11T10:06:42;97117.75;;;3.46;99.99
27429;BME280;14881;48.092;11.574;2023-02-11T10:09:30;97099.94;;;4.17;93.61
27429;BME280;14881;48.092;11.574;2023-02-11T10:12:14;97101.00;;;4.81;90.24
27429;BME280;14881;48.092;11.574;2023-02-11T10:15:09;97092.25;;;4.85;86.77
27429;BME280;14881;48.092;11.574;2023-02-11T10:17:48;97090.56;;;4.46;88.56
27429;BME280;14881;48.092;11.574;2023-02-11T10:20:27;97096.19;;;4.25;91.38
27429;BME280;14881;48.092;11.574;2023-02-11T10:22:59;97099.28;;;4.35;93.03
27429;BME280;14881;48.092;11.574;2023-02-11T10:25:33;97099.88;;;4.44;92.18
27429;BME280;14881;48.092;11.574;2023-02-11T10:28:12;97106.72;;;4.46;91.80
27429;BME280;14881;48.092;11.574;2023-02-11T10:30:51;97095.69;;;4.54;91.98
27429;BME280;14881;48.092;11.574;2023-02-11T10:33:26;97092.59;;;4.51;91.04
27429;BME280;14881;48.092;11.574;2023-02-11T10:35:55;97090.03;;;4.69;91.22
27429;BME280;14881;48.092;11.574;2023-02-11T10:38:24;97086.72;;;4.80;89.39
27429;BME280;14881;48.092;11.574;2023-02-11T10:40:53;97083.72;;;4.95;88.84
27429;BME280;14881;48.092;11.574;2023-02-11T10:43:26;97083.41;;;5.16;88.79
27429;BME280;14881;48.092;11.574;2023-02-11T10:45:57;97083.28;;;5.68;86.74
27429;BME280;14881;48.092;11.574;2023-02-11T10:48:40;97074.59;;;5.90;84.73
27429;BME280;14881;48.092;11.574;2023-02-11T10:51:17;97067.78;;;6.06;83.10
27429;BME280;14881;48.092;11.574;2023-02-11T10:53:47;97067.50;;;5.96;81.96
27429;BME280;14881;48.092;11.574;2023-02-11T10:56:21;97067.72;;;5.94;82.19
27429;BME280;14881;48.092;11.574;2023-02-11T10:58:57;97084.69;;;6.02;81.56
27429;BME280;14881;48.092;11.574;2023-02-11T11:01:40;97078.19;;;6.27;80.95
27429;BME280;14881;48.092;11.574;2023-02-11T11:04:32;97076.41;;;6.58;79.54
27429;BME280;14881;48.092;11.574;2023-02-11T11:07:14;97069.47;;;6.80;77.20
27429;BME280;14881;48.092;11.574;2023-02-11T11:09:46;97061.66;;;7.09;75.11
27429;BME280;14881;48.092;11.574;2023-02-11T11:12:35;97057.97;;;7.03;71.83
27429;BME280;14881;48.092;11.574;2023-02-11T11:15:19;97048.88;;;7.27;68.14
27429;BME280;14881;48.092;11.574;2023-02-11T11:17:50;97050.34;;;7.42;68.40
27429;BME280;14881;48.092;11.574;2023-02-11T11:20:21;97038.41;;;7.61;66.91
27429;BME280;14881;48.092;11.574;2023-02-11T11:22:51;97040.59;;;7.41;63.29
27429;BME280;14881;48.092;11.574;2023-02-11T11:25:23;97045.78;;;7.12;61.40
27429;BME280;14881;48.092;11.574;2023-02-11T11:27:54;97055.97;;;6.80;61.98
27429;BME280;14881;48.092;11.574;2023-02-11T11:30:27;97047.38;;;7.02;62.20
27429;BME280;14881;48.092;11.574;2023-02-11T11:33:00;97037.38;;;6.90;60.73
27429;BME280;14881;48.092;11.574;2023-02-11T11:35:30;97044.34;;;6.80;61.17
27429;BME280;14881;48.092;11.574;2023-02-11T11:38:01;97035.56;;;6.84;61.60
27429;BME280;14881;48.092;11.574;2023-02-11T11:40:31;97034.88;;;6.89;62.42
27429;BME280;14881;48.092;11.574;2023-02-11T11:43:14;97044.03;;;6.88;61.88
27429;BME280;14881;48.092;11.574;2023-02-11T11:45:54;97033.19;;;7.06;62.07
27429;BME280;14881;48.092;11.574;2023-02-11T11:48:25;97032.56;;;7.22;62.17
27429;BME280;14881;48.092;11.574;2023-02-11T11:50:57;97025.34;;;7.58;61.22
27429;BME280;14881;48.092;11.574;2023-02-11T11:53:34;97035.34;;;8.16;60.96
27429;BME280;14881;48.092;11.574;2023-02-11T11:56:06;97029.94;;;8.62;60.08
27429;BME280;14881;48.092;11.574;2023-02-11T11:58:36;97042.38;;;9.03;58.84
27429;BME280;14881;48.092;11.574;2023-02-11T12:01:19;97042.13;;;9.17;56.80
27429;BME280;14881;48.092;11.574;2023-02-11T12:04:17;97050.16;;;9.12;54.38
27429;BME280;14881;48.092;11.574;2023-02-11T12:06:58;97038.22;;;8.84;55.11
27429;BME280;14881;48.092;11.574;2023-02-11T12:09:34;97036.94;;;8.75;55.23
27429;BME280;14881;48.092;11.574;2023-02-11T12:12:21;97036.19;;;8.40;56.22
27429;BME280;14881;48.092;11.574;2023-02-11T12:14:59;97025.25;;;8.11;54.07
27429;BME280;14881;48.092;11.574;2023-02-11T12:17:44;97028.88;;;7.82;55.30
27429;BME280;14881;48.092;11.574;2023-02-11T12:20:23;97025.44;;;7.63;56.82
27429;BME280;14881;48.092;11.574;2023-02-11T12:23:01;97028.16;;;7.63;55.19
27429;BME280;14881;48.092;11.574;2023-02-11T12:25:38;97027.22;;;7.69;55.82
27429;BME280;14881;48.092;11.574;2023-02-11T12:28:21;97028.50;;;7.43;54.92
27429;BME280;14881;48.092;11.574;2023-02-11T12:30:59;97031.59;;;7.28;55.79
27429;BME280;14881;48.092;11.574;2023-02-11T12:33:46;97034.16;;;7.53;57.00
27429;BME280;14881;48.092;11.574;2023-02-11T12:36:34;97024.28;;;7.71;55.28
27429;BME280;14881;48.092;11.574;2023-02-11T12:39:12;97012.78;;;7.87;54.63
27429;BME280;14881;48.092;11.574;2023-02-11T12:41:56;97010.88;;;7.99;53.84
27429;BME280;14881;48.092;11.574;2023-02-11T12:44:56;97006.28;;;7.99;54.44
27429;BME280;14881;48.092;11.574;2023-02-11T12:47:32;96996.91;;;8.14;53.67
27429;BME280;14881;48.092;11.574;2023-02-11T12:50:14;97004.44;;;7.88;51.23
27429;BME280;14881;48.092;11.574;2023-02-11T12:52:59;96993.84;;;7.75;53.21
27429;BME280;14881;48.092;11.574;2023-02-11T12:55:34;96999.25;;;7.98;52.84
27429;BME280;14881;48.092;11.574;2023-02-11T12:58:04;96999.72;;;7.95;52.03
27429;BME280;14881;48.092;11.574;2023-02-11T13:00:40;97000.44;;;7.91;52.49
27429;BME280;14881;48.092;11.574;2023-02-11T13:03:15;96994.44;;;7.77;52.12
27429;BME280;14881;48.092;11.574;2023-02-11T13:05:48;97001.72;;;7.77;51.84
27429;BME280;14881;48.092;11.574;2023-02-11T13:08:24;96986.53;;;7.64;52.44
27429;BME280;14881;48.092;11.574;2023-02-11T13:10:56;96986.66;;;7.69;51.84
27429;BME280;14881;48.092;11.574;2023-02-11T13:13:28;96982.44;;;7.73;51.46
27429;BME280;14881;48.092;11.574;2023-02-11T13:16:01;96976.66;;;7.58;51.89